sensor_id;sensor_type;location;lat;lon;timestamp;P1;durP1;ratioP1;P2;durP2;ratioP2
38529;SDS011;24301;54.332;48.386;2023-03-13T00:01:31;18.43;;;6.23;;
38529;SDS011;24301;54.332;48.386;2023-03-13T00:03:59;20.03;;;5.83;;
38529;SDS011;24301;54.332;48.386;2023-03-13T00:06:26;15.47;;;6.37;;
38529;SDS011;24301;54.332;48.386;2023-03-13T00:08:56;11.67;;;5.73;;
38529;SDS011;24301;54.332;48.386;2023-03-13T00:11:25;17.73;;;6.17;;
38529;SDS011;24301;54.332;48.386;2023-03-13T00:13:58;16.77;;;5.97;;
38529;SDS011;24301;54.332;48.386;2023-03-13T00:16:25;13.80;;;5.73;;
38529;SDS011;24301;54.332;48.386;2023-03-13T00:18:52;14.70;;;6.13;;
38529;SDS011;24301;54.332;48.386;2023-03-13T00:21:20;20.10;;;6.90;;
38529;SDS011;24301;54.332;48.386;2023-03-13T00:23:48;17.37;;;6.90;;
38529;SDS011;24301;54.332;48.386;2023-03-13T00:26:15;14.03;;;6.30;;
38529;SDS011;24301;54.332;48.386;2023-03-13T00:28:44;13.73;;;5.50;;
38529;SDS011;24301;54.332;48.386;2023-03-13T00:33:39;14.63;;;5.30;;
38529;SDS011;24301;54.332;48.386;2023-03-13T00:36:09;15.27;;;6.17;;
38529;SDS011;24301;54.332;48.386;2023-03-13T00:38:36;13.60;;;5.60;;
38529;SDS011;24301;54.332;48.386;2023-03-13T00:41:03;18.30;;;7.77;;
38529;SDS011;24301;54.332;48.386;2023-03-13T00:43:30;10.87;;;5.43;;
38529;SDS011;24301;54.332;48.386;2023-03-13T00:45:59;15.47;;;7.33;;
38529;SDS011;24301;54.332;48.386;2023-03-13T00:48:25;16.13;;;6.10;;
38529;SDS011;24301;54.332;48.386;2023-03-13T00:50:52;19.00;;;7.57;;
38529;SDS011;24301;54.332;48.386;2023-03-13T00:53:18;11.07;;;5.43;;
38529;SDS011;24301;54.332;48.386;2023-03-13T00:56:06;9.17;;;5.63;;
38529;SDS011;24301;54.332;48.386;2023-03-13T00:58:33;9.73;;;5.97;;
38529;SDS011;24301;54.332;48.386;2023-03-13T01:03:41;12.87;;;6.20;;
38529;SDS011;24301;54.332;48.386;2023-03-13T01:06:10;13.10;;;5.80;;
38529;SDS011;24301;54.332;48.386;2023-03-13T01:08:39;12.17;;;5.70;;
38529;SDS011;24301;54.332;48.386;2023-03-13T01:11:06;17.13;;;5.87;;
38529;SDS011;24301;54.332;48.386;2023-03-13T01:13:34;12.20;;;6.37;;
38529;SDS011;24301;54.332;48.386;2023-03-13T01:16:04;16.93;;;4.90;;
38529;SDS011;24301;54.332;48.386;2023-03-13T01:18:35;11.93;;;4.77;;
38529;SDS011;24301;54.332;48.386;2023-03-13T01:21:02;17.77;;;5.13;;
38529;SDS011;24301;54.332;48.386;2023-03-13T01:23:29;15.53;;;5.60;;
38529;SDS011;24301;54.332;48.386;2023-03-13T01:25:55;11.70;;;5.07;;
38529;SDS011;24301;54.332;48.386;2023-03-13T01:28:22;14.20;;;5.23;;
38529;SDS011;24301;54.332;48.386;2023-03-13T01:30:49;14.27;;;5.20;;
38529;SDS011;24301;54.332;48.386;2023-03-13T01:33:15;14.13;;;5.07;;
38529;SDS011;24301;54.332;48.386;2023-03-13T01:35:42;18.53;;;6.67;;
38529;SDS011;24301;54.332;48.386;2023-03-13T01:38:08;26.47;;;7.77;;
38529;SDS011;24301;54.332;48.386;2023-03-13T01:43:16;19.73;;;6.73;;
38529;SDS011;24301;54.332;48.386;2023-03-13T01:50:54;14.27;;;6.20;;
38529;SDS011;24301;54.332;48.386;2023-03-13T01:53:26;18.60;;;6.77;;
38529;SDS011;24301;54.332;48.386;2023-03-13T01:55:57;27.07;;;7.57;;
38529;SDS011;24301;54.332;48.386;2023-03-13T01:58:25;25.10;;;6.73;;
38529;SDS011;24301;54.332;48.386;2023-03-13T02:00:54;18.17;;;5.93;;
38529;SDS011;24301;54.332;48.386;2023-03-13T02:03:21;18.67;;;6.77;;
38529;SDS011;24301;54.332;48.386;2023-03-13T02:05:47;27.23;;;7.53;;
38529;SDS011;24301;54.332;48.386;2023-03-13T02:10:57;18.33;;;6.23;;
38529;SDS011;24301;54.332;48.386;2023-03-13T02:13:31;18.07;;;5.93;;
38529;SDS011;24301;54.332;48.386;2023-03-13T02:15:57;24.00;;;6.53;;
38529;SDS011;24301;54.332;48.386;2023-03-13T02:18:24;18.73;;;5.93;;
38529;SDS011;24301;54.332;48.386;2023-03-13T02:20:50;14.73;;;6.27;;
38529;SDS011;24301;54.332;48.386;2023-03-13T02:23:27;14.80;;;5.37;;
38529;SDS011;24301;54.332;48.386;2023-03-13T02:26:03;13.60;;;5.67;;
38529;SDS011;24301;54.332;48.386;2023-03-13T02:28:33;17.93;;;5.37;;
38529;SDS011;24301;54.332;48.386;2023-03-13T02:31:03;11.77;;;5.23;;
38529;SDS011;24301;54.332;48.386;2023-03-13T02:33:33;12.47;;;4.83;;
38529;SDS011;24301;54.332;48.386;2023-03-13T02:36:03;8.90;;;4.33;;
38529;SDS011;24301;54.332;48.386;2023-03-13T02:38:32;15.33;;;4.67;;
38529;SDS011;24301;54.332;48.386;2023-03-13T02:41:02;14.77;;;5.67;;
38529;SDS011;24301;54.332;48.386;2023-03-13T02:43:34;14.73;;;4.50;;
38529;SDS011;24301;54.332;48.386;2023-03-13T02:46:04;13.77;;;4.60;;
38529;SDS011;24301;54.332;48.386;2023-03-13T02:48:40;9.10;;;4.03;;
38529;SDS011;24301;54.332;48.386;2023-03-13T02:54:09;8.87;;;4.00;;
38529;SDS011;24301;54.332;48.386;2023-03-13T02:56:39;11.97;;;4.40;;
38529;SDS011;24301;54.332;48.386;2023-03-13T02:59:08;7.40;;;3.23;;
38529;SDS011;24301;54.332;48.386;2023-03-13T03:01:38;9.17;;;3.80;;
38529;SDS011;24301;54.332;48.386;2023-03-13T03:04:03;9.30;;;3.43;;
38529;SDS011;24301;54.332;48.386;2023-03-13T03:06:29;8.03;;;3.63;;
38529;SDS011;24301;54.332;48.386;2023-03-13T03:08:56;12.10;;;3.63;;
38529;SDS011;24301;54.332;48.386;2023-03-13T03:11:24;9.00;;;2.53;;
38529;SDS011;24301;54.332;48.386;2023-03-13T03:13:57;8.20;;;3.93;;
38529;SDS011;24301;54.332;48.386;2023-03-13T03:16:24;3.87;;;2.40;;
38529;SDS011;24301;54.332;48.386;2023-03-13T03:18:50;5.73;;;2.97;;
38529;SDS011;24301;54.332;48.386;2023-03-13T03:21:16;5.10;;;3.17;;
38529;SDS011;24301;54.332;48.386;2023-03-13T03:23:42;5.40;;;2.77;;
38529;SDS011;24301;54.332;48.386;2023-03-13T03:26:07;5.07;;;3.00;;
38529;SDS011;24301;54.332;48.386;2023-03-13T03:28:34;5.60;;;2.90;;
38529;SDS011;24301;54.332;48.386;2023-03-13T03:31:04;4.03;;;2.60;;
38529;SDS011;24301;54.332;48.386;2023-03-13T03:33:32;4.67;;;2.80;;
38529;SDS011;24301;54.332;48.386;2023-03-13T03:35:59;4.13;;;2.90;;
38529;SDS011;24301;54.332;48.386;2023-03-13T03:38:28;5.03;;;2.97;;
38529;SDS011;24301;54.332;48.386;2023-03-13T03:40:54;3.37;;;2.50;;
38529;SDS011;24301;54.332;48.386;2023-03-13T03:43:20;3.97;;;2.77;;
38529;SDS011;24301;54.332;48.386;2023-03-13T03:45:46;4.10;;;2.83;;
38529;SDS011;24301;54.332;48.386;2023-03-13T03:48:12;3.30;;;2.50;;
38529;SDS011;24301;54.332;48.386;2023-03-13T03:50:38;3.63;;;2.77;;
38529;SDS011;24301;54.332;48.386;2023-03-13T03:53:04;3.70;;;2.30;;
38529;SDS011;24301;54.332;48.386;2023-03-13T03:55:30;4.03;;;2.77;;
38529;SDS011;24301;54.332;48.386;2023-03-13T03:57:56;2.80;;;2.30;;
38529;SDS011;24301;54.332;48.386;2023-03-13T04:00:46;2.83;;;2.33;;
38529;SDS011;24301;54.332;48.386;2023-03-13T04:03:13;3.33;;;2.57;;
38529;SDS011;24301;54.332;48.386;2023-03-13T04:05:40;3.90;;;2.43;;
38529;SDS011;24301;54.332;48.386;2023-03-13T04:08:06;2.90;;;1.93;;
38529;SDS011;24301;54.332;48.386;2023-03-13T04:10:32;2.63;;;2.20;;
38529;SDS011;24301;54.332;48.386;2023-03-13T04:12:58;3.10;;;2.23;;
38529;SDS011;24301;54.332;48.386;2023-03-13T04:15:24;3.70;;;3.00;;
38529;SDS011;24301;54.332;48.386;2023-03-13T04:17:50;3.17;;;2.23;;
38529;SDS011;24301;54.332;48.386;2023-03-13T04:20:18;2.70;;;2.00;;
38529;SDS011;24301;54.332;48.386;2023-03-13T04:22:44;2.80;;;1.90;;
38529;SDS011;24301;54.332;48.386;2023-03-13T04:25:11;3.30;;;2.17;;
38529;SDS011;24301;54.332;48.386;2023-03-13T04:27:38;4.57;;;2.97;;
38529;SDS011;24301;54.332;48.386;2023-03-13T04:30:04;7.60;;;4.23;;
38529;SDS011;24301;54.332;48.386;2023-03-13T04:32:37;8.10;;;4.53;;
38529;SDS011;24301;54.332;48.386;2023-03-13T04:35:03;5.13;;;3.07;;
38529;SDS011;24301;54.332;48.386;2023-03-13T04:37:58;5.70;;;2.47;;
38529;SDS011;24301;54.332;48.386;2023-03-13T04:40:38;5.00;;;3.03;;
38529;SDS011;24301;54.332;48.386;2023-03-13T04:43:30;25.83;;;6.63;;
38529;SDS011;24301;54.332;48.386;2023-03-13T04:46:05;9.47;;;4.20;;
38529;SDS011;24301;54.332;48.386;2023-03-13T04:49:06;20.10;;;5.93;;
38529;SDS011;24301;54.332;48.386;2023-03-13T04:51:45;7.30;;;4.33;;
38529;SDS011;24301;54.332;48.386;2023-03-13T04:54:23;9.13;;;4.60;;
38529;SDS011;24301;54.332;48.386;2023-03-13T04:57:05;52.17;;;10.37;;
38529;SDS011;24301;54.332;48.386;2023-03-13T04:59:51;17.53;;;6.00;;
38529;SDS011;24301;54.332;48.386;2023-03-13T05:02:20;7.77;;;4.30;;
38529;SDS011;24301;54.332;48.386;2023-03-13T05:05:12;56.20;;;7.77;;
38529;SDS011;24301;54.332;48.386;2023-03-13T05:08:00;50.93;;;7.27;;
38529;SDS011;24301;54.332;48.386;2023-03-13T05:10:37;9.00;;;3.50;;
38529;SDS011;24301;54.332;48.386;2023-03-13T05:13:13;12.23;;;4.00;;
38529;SDS011;24301;54.332;48.386;2023-03-13T05:16:08;152.30;;;16.00;;
38529;SDS011;24301;54.332;48.386;2023-03-13T05:18:54;12.40;;;4.43;;
38529;SDS011;24301;54.332;48.386;2023-03-13T05:21:46;99.00;;;12.03;;
38529;SDS011;24301;54.332;48.386;2023-03-13T05:24:25;9.83;;;3.83;;
38529;SDS011;24301;54.332;48.386;2023-03-13T05:27:25;33.87;;;5.23;;
38529;SDS011;24301;54.332;48.386;2023-03-13T05:30:12;67.37;;;8.73;;
38529;SDS011;24301;54.332;48.386;2023-03-13T05:33:04;3.60;;;2.37;;
38529;SDS011;24301;54.332;48.386;2023-03-13T05:35:53;1.60;;;1.33;;
38529;SDS011;24301;54.332;48.386;2023-03-13T05:38:45;2.63;;;1.20;;
38529;SDS011;24301;54.332;48.386;2023-03-13T05:41:46;2.27;;;1.70;;
38529;SDS011;24301;54.332;48.386;2023-03-13T05:44:23;2.80;;;2.27;;
38529;SDS011;24301;54.332;48.386;2023-03-13T05:46:59;2.60;;;1.93;;
38529;SDS011;24301;54.332;48.386;2023-03-13T05:49:40;3.13;;;2.00;;
38529;SDS011;24301;54.332;48.386;2023-03-13T05:52:23;4.13;;;2.63;;
38529;SDS011;24301;54.332;48.386;2023-03-13T05:54:48;12.60;;;3.07;;
38529;SDS011;24301;54.332;48.386;2023-03-13T05:57:38;8.63;;;2.60;;
38529;SDS011;24301;54.332;48.386;2023-03-13T06:00:27;6.83;;;2.33;;
38529;SDS011;24301;54.332;48.386;2023-03-13T06:03:28;7.23;;;2.50;;
38529;SDS011;24301;54.332;48.386;2023-03-13T06:05:56;4.27;;;2.33;;
38529;SDS011;24301;54.332;48.386;2023-03-13T06:08:31;2.60;;;2.23;;
38529;SDS011;24301;54.332;48.386;2023-03-13T06:10:58;3.77;;;2.63;;
38529;SDS011;24301;54.332;48.386;2023-03-13T06:13:24;4.53;;;3.23;;
38529;SDS011;24301;54.332;48.386;2023-03-13T06:15:53;4.27;;;2.37;;
38529;SDS011;24301;54.332;48.386;2023-03-13T06:18:50;17.63;;;3.20;;
38529;SDS011;24301;54.332;48.386;2023-03-13T06:21:16;3.70;;;2.30;;
38529;SDS011;24301;54.332;48.386;2023-03-13T06:23:42;2.93;;;2.23;;
38529;SDS011;24301;54.332;48.386;2023-03-13T06:26:07;3.50;;;2.30;;
38529;SDS011;24301;54.332;48.386;2023-03-13T06:28:33;5.13;;;2.60;;
38529;SDS011;24301;54.332;48.386;2023-03-13T06:31:00;3.87;;;2.60;;
38529;SDS011;24301;54.332;48.386;2023-03-13T06:33:28;4.43;;;2.53;;
38529;SDS011;24301;54.332;48.386;2023-03-13T06:35:55;4.60;;;3.00;;
38529;SDS011;24301;54.332;48.386;2023-03-13T06:38:22;3.97;;;2.50;;
38529;SDS011;24301;54.332;48.386;2023-03-13T06:40:52;4.77;;;3.43;;
38529;SDS011;24301;54.332;48.386;2023-03-13T06:43:18;4.00;;;2.87;;
38529;SDS011;24301;54.332;48.386;2023-03-13T06:45:44;3.97;;;2.90;;
38529;SDS011;24301;54.332;48.386;2023-03-13T06:48:10;3.50;;;2.40;;
38529;SDS011;24301;54.332;48.386;2023-03-13T06:50:39;3.83;;;2.50;;
38529;SDS011;24301;54.332;48.386;2023-03-13T06:53:06;4.10;;;2.67;;
38529;SDS011;24301;54.332;48.386;2023-03-13T06:55:32;4.33;;;2.77;;
38529;SDS011;24301;54.332;48.386;2023-03-13T06:57:58;4.27;;;2.77;;
38529;SDS011;24301;54.332;48.386;2023-03-13T07:00:24;3.43;;;2.70;;
38529;SDS011;24301;54.332;48.386;2023-03-13T07:02:50;4.10;;;2.67;;
38529;SDS011;24301;54.332;48.386;2023-03-13T07:05:16;3.73;;;2.10;;
38529;SDS011;24301;54.332;48.386;2023-03-13T07:07:42;2.50;;;2.07;;
38529;SDS011;24301;54.332;48.386;2023-03-13T07:10:09;3.23;;;2.13;;
38529;SDS011;24301;54.332;48.386;2023-03-13T07:12:35;4.00;;;1.97;;
38529;SDS011;24301;54.332;48.386;2023-03-13T07:15:02;2.33;;;1.70;;
38529;SDS011;24301;54.332;48.386;2023-03-13T07:17:28;4.00;;;2.10;;
38529;SDS011;24301;54.332;48.386;2023-03-13T07:19:54;2.83;;;2.53;;
38529;SDS011;24301;54.332;48.386;2023-03-13T07:22:20;2.40;;;2.03;;
38529;SDS011;24301;54.332;48.386;2023-03-13T07:24:47;2.60;;;2.00;;
38529;SDS011;24301;54.332;48.386;2023-03-13T07:27:13;2.57;;;2.20;;
38529;SDS011;24301;54.332;48.386;2023-03-13T07:29:41;2.80;;;2.10;;
38529;SDS011;24301;54.332;48.386;2023-03-13T07:32:07;2.57;;;1.60;;
38529;SDS011;24301;54.332;48.386;2023-03-13T07:34:33;2.67;;;1.50;;
38529;SDS011;24301;54.332;48.386;2023-03-13T07:36:59;3.63;;;1.90;;
38529;SDS011;24301;54.332;48.386;2023-03-13T07:39:25;3.37;;;1.77;;
38529;SDS011;24301;54.332;48.386;2023-03-13T07:41:50;3.53;;;2.40;;
38529;SDS011;24301;54.332;48.386;2023-03-13T07:44:16;2.40;;;1.70;;
38529;SDS011;24301;54.332;48.386;2023-03-13T07:46:42;2.27;;;1.77;;
38529;SDS011;24301;54.332;48.386;2023-03-13T07:49:08;2.70;;;2.10;;
38529;SDS011;24301;54.332;48.386;2023-03-13T07:51:34;3.20;;;2.00;;
38529;SDS011;24301;54.332;48.386;2023-03-13T07:54:00;2.67;;;2.03;;
38529;SDS011;24301;54.332;48.386;2023-03-13T07:56:25;4.20;;;2.47;;
38529;SDS011;24301;54.332;48.386;2023-03-13T07:58:51;2.13;;;1.70;;
38529;SDS011;24301;54.332;48.386;2023-03-13T08:01:18;2.83;;;1.87;;
38529;SDS011;24301;54.332;48.386;2023-03-13T08:03:48;3.73;;;1.90;;
38529;SDS011;24301;54.332;48.386;2023-03-13T08:06:18;3.67;;;2.10;;
38529;SDS011;24301;54.332;48.386;2023-03-13T08:08:49;3.90;;;1.83;;
38529;SDS011;24301;54.332;48.386;2023-03-13T08:11:16;2.87;;;1.10;;
38529;SDS011;24301;54.332;48.386;2023-03-13T08:13:44;1.13;;;1.03;;
38529;SDS011;24301;54.332;48.386;2023-03-13T08:16:11;1.33;;;1.20;;
38529;SDS011;24301;54.332;48.386;2023-03-13T08:18:41;1.47;;;1.20;;
38529;SDS011;24301;54.332;48.386;2023-03-13T08:21:10;1.63;;;1.37;;
38529;SDS011;24301;54.332;48.386;2023-03-13T08:23:40;1.47;;;1.00;;
38529;SDS011;24301;54.332;48.386;2023-03-13T08:28:36;1.87;;;1.30;;
38529;SDS011;24301;54.332;48.386;2023-03-13T08:31:10;1.33;;;1.23;;
38529;SDS011;24301;54.332;48.386;2023-03-13T08:33:39;1.30;;;1.20;;
38529;SDS011;24301;54.332;48.386;2023-03-13T08:36:19;1.23;;;1.13;;
38529;SDS011;24301;54.332;48.386;2023-03-13T08:38:50;1.27;;;1.10;;
38529;SDS011;24301;54.332;48.386;2023-03-13T08:41:18;1.77;;;1.40;;
38529;SDS011;24301;54.332;48.386;2023-03-13T08:43:46;1.60;;;1.20;;
38529;SDS011;24301;54.332;48.386;2023-03-13T08:46:12;2.20;;;1.77;;
38529;SDS011;24301;54.332;48.386;2023-03-13T08:48:39;2.67;;;1.80;;
38529;SDS011;24301;54.332;48.386;2023-03-13T08:51:06;2.53;;;1.57;;
38529;SDS011;24301;54.332;48.386;2023-03-13T08:53:34;1.83;;;1.40;;
38529;SDS011;24301;54.332;48.386;2023-03-13T08:56:01;2.17;;;1.90;;
38529;SDS011;24301;54.332;48.386;2023-03-13T08:58:28;2.47;;;2.00;;
38529;SDS011;24301;54.332;48.386;2023-03-13T09:00:59;1.47;;;1.20;;
38529;SDS011;24301;54.332;48.386;2023-03-13T09:03:29;1.90;;;1.30;;
38529;SDS011;24301;54.332;48.386;2023-03-13T09:05:56;1.83;;;1.30;;
38529;SDS011;24301;54.332;48.386;2023-03-13T09:08:23;1.20;;;1.10;;
38529;SDS011;24301;54.332;48.386;2023-03-13T09:10:54;2.20;;;1.30;;
38529;SDS011;24301;54.332;48.386;2023-03-13T09:13:27;3.67;;;2.53;;
38529;SDS011;24301;54.332;48.386;2023-03-13T09:15:58;3.23;;;2.20;;
38529;SDS011;24301;54.332;48.386;2023-03-13T09:18:25;2.53;;;1.70;;
38529;SDS011;24301;54.332;48.386;2023-03-13T09:20:52;2.27;;;1.77;;
38529;SDS011;24301;54.332;48.386;2023-03-13T09:23:19;2.50;;;2.17;;
38529;SDS011;24301;54.332;48.386;2023-03-13T09:25:45;3.70;;;1.50;;
38529;SDS011;24301;54.332;48.386;2023-03-13T09:28:12;1.53;;;1.20;;
38529;SDS011;24301;54.332;48.386;2023-03-13T09:30:38;1.70;;;1.20;;
38529;SDS011;24301;54.332;48.386;2023-03-13T09:33:04;1.23;;;1.13;;
38529;SDS011;24301;54.332;48.386;2023-03-13T09:35:30;1.90;;;1.13;;
38529;SDS011;24301;54.332;48.386;2023-03-13T09:37:55;2.37;;;1.30;;
38529;SDS011;24301;54.332;48.386;2023-03-13T09:40:22;1.90;;;1.13;;
38529;SDS011;24301;54.332;48.386;2023-03-13T09:42:51;2.70;;;1.40;;
38529;SDS011;24301;54.332;48.386;2023-03-13T09:47:51;2.30;;;1.60;;
38529;SDS011;24301;54.332;48.386;2023-03-13T09:50:30;2.23;;;2.07;;
38529;SDS011;24301;54.332;48.386;2023-03-13T09:53:03;3.07;;;1.70;;
38529;SDS011;24301;54.332;48.386;2023-03-13T09:55:38;1.40;;;1.20;;
38529;SDS011;24301;54.332;48.386;2023-03-13T09:58:10;2.10;;;1.43;;
38529;SDS011;24301;54.332;48.386;2023-03-13T10:01:02;1.50;;;1.30;;
38529;SDS011;24301;54.332;48.386;2023-03-13T10:06:17;6.70;;;1.87;;
38529;SDS011;24301;54.332;48.386;2023-03-13T10:08:45;2.10;;;1.20;;
38529;SDS011;24301;54.332;48.386;2023-03-13T10:14:10;1.90;;;1.23;;
38529;SDS011;24301;54.332;48.386;2023-03-13T10:19:15;5.50;;;2.27;;
38529;SDS011;24301;54.332;48.386;2023-03-13T10:21:46;3.50;;;2.27;;
38529;SDS011;24301;54.332;48.386;2023-03-13T10:26:55;1.50;;;1.30;;
38529;SDS011;24301;54.332;48.386;2023-03-13T10:29:23;2.23;;;1.90;;
38529;SDS011;24301;54.332;48.386;2023-03-13T10:32:10;3.10;;;2.17;;
38529;SDS011;24301;54.332;48.386;2023-03-13T10:37:11;1.50;;;1.40;;
38529;SDS011;24301;54.332;48.386;2023-03-13T10:39:40;3.03;;;1.30;;
38529;SDS011;24301;54.332;48.386;2023-03-13T10:42:48;1.80;;;1.53;;
38529;SDS011;24301;54.332;48.386;2023-03-13T10:45:12;2.47;;;1.60;;
38529;SDS011;24301;54.332;48.386;2023-03-13T10:47:43;2.13;;;1.40;;
38529;SDS011;24301;54.332;48.386;2023-03-13T10:50:16;3.03;;;1.50;;
38529;SDS011;24301;54.332;48.386;2023-03-13T10:52:45;2.73;;;1.80;;
38529;SDS011;24301;54.332;48.386;2023-03-13T10:55:18;2.53;;;1.57;;
38529;SDS011;24301;54.332;48.386;2023-03-13T10:57:56;1.63;;;1.53;;
38529;SDS011;24301;54.332;48.386;2023-03-13T11:02:50;2.67;;;1.80;;
38529;SDS011;24301;54.332;48.386;2023-03-13T11:07:51;1.77;;;1.33;;
38529;SDS011;24301;54.332;48.386;2023-03-13T11:10:28;2.83;;;1.60;;
38529;SDS011;24301;54.332;48.386;2023-03-13T11:12:55;3.27;;;1.90;;
38529;SDS011;24301;54.332;48.386;2023-03-13T11:20:45;4.40;;;2.57;;
38529;SDS011;24301;54.332;48.386;2023-03-13T11:23:20;2.93;;;1.70;;
38529;SDS011;24301;54.332;48.386;2023-03-13T11:26:00;2.17;;;1.37;;
38529;SDS011;24301;54.332;48.386;2023-03-13T11:33:35;2.30;;;1.60;;
38529;SDS011;24301;54.332;48.386;2023-03-13T11:39:28;4.13;;;2.17;;
38529;SDS011;24301;54.332;48.386;2023-03-13T11:42:25;2.53;;;1.90;;
38529;SDS011;24301;54.332;48.386;2023-03-13T11:48:14;1.63;;;1.53;;
38529;SDS011;24301;54.332;48.386;2023-03-13T11:56:42;3.27;;;1.40;;
38529;SDS011;24301;54.332;48.386;2023-03-13T12:04:55;2.33;;;1.95;;
38529;SDS011;24301;54.332;48.386;2023-03-13T12:07:32;2.73;;;1.17;;
38529;SDS011;24301;54.332;48.386;2023-03-13T12:10:10;2.33;;;1.67;;
38529;SDS011;24301;54.332;48.386;2023-03-13T12:12:40;4.38;;;1.75;;
38529;SDS011;24301;54.332;48.386;2023-03-13T12:20:55;1.73;;;1.20;;
38529;SDS011;24301;54.332;48.386;2023-03-13T12:27:14;2.60;;;2.13;;
38529;SDS011;24301;54.332;48.386;2023-03-13T12:29:57;3.78;;;1.67;;
38529;SDS011;24301;54.332;48.386;2023-03-13T12:38:07;1.70;;;1.30;;
38529;SDS011;24301;54.332;48.386;2023-03-13T12:43:46;1.57;;;1.37;;
38529;SDS011;24301;54.332;48.386;2023-03-13T13:00:38;2.73;;;1.70;;
38529;SDS011;24301;54.332;48.386;2023-03-13T13:03:15;2.63;;;1.20;;
38529;SDS011;24301;54.332;48.386;2023-03-13T13:06:01;3.67;;;1.20;;
38529;SDS011;24301;54.332;48.386;2023-03-13T13:14:05;2.40;;;1.57;;
38529;SDS011;24301;54.332;48.386;2023-03-13T13:17:03;1.90;;;1.60;;
38529;SDS011;24301;54.332;48.386;2023-03-13T13:35:43;2.93;;;1.40;;
38529;SDS011;24301;54.332;48.386;2023-03-13T13:43:24;1.63;;;1.10;;
38529;SDS011;24301;54.332;48.386;2023-03-13T13:46:01;1.93;;;1.30;;
38529;SDS011;24301;54.332;48.386;2023-03-13T13:48:35;1.30;;;1.20;;
38529;SDS011;24301;54.332;48.386;2023-03-13T13:53:44;3.37;;;1.57;;
38529;SDS011;24301;54.332;48.386;2023-03-13T14:01:48;2.43;;;1.97;;
38529;SDS011;24301;54.332;48.386;2023-03-13T14:04:40;1.80;;;1.47;;
38529;SDS011;24301;54.332;48.386;2023-03-13T14:10:43;1.03;;;1.00;;
38529;SDS011;24301;54.332;48.386;2023-03-13T14:13:19;1.87;;;1.20;;
38529;SDS011;24301;54.332;48.386;2023-03-13T14:15:49;1.67;;;1.27;;
38529;SDS011;24301;54.332;48.386;2023-03-13T14:20:55;2.23;;;1.40;;
38529;SDS011;24301;54.332;48.386;2023-03-13T14:26:20;3.33;;;2.57;;
38529;SDS011;24301;54.332;48.386;2023-03-13T14:28:54;3.17;;;1.60;;
38529;SDS011;24301;54.332;48.386;2023-03-13T14:31:28;3.07;;;1.83;;
38529;SDS011;24301;54.332;48.386;2023-03-13T14:33:56;3.20;;;2.13;;
38529;SDS011;24301;54.332;48.386;2023-03-13T14:36:24;2.37;;;1.63;;
38529;SDS011;24301;54.332;48.386;2023-03-13T14:38:52;2.37;;;2.03;;
38529;SDS011;24301;54.332;48.386;2023-03-13T14:41:27;2.30;;;1.70;;
38529;SDS011;24301;54.332;48.386;2023-03-13T14:46:29;1.30;;;1.20;;
38529;SDS011;24301;54.332;48.386;2023-03-13T14:51:43;2.73;;;1.50;;
38529;SDS011;24301;54.332;48.386;2023-03-13T14:54:22;1.80;;;1.53;;
38529;SDS011;24301;54.332;48.386;2023-03-13T14:57:18;2.10;;;1.57;;
38529;SDS011;24301;54.332;48.386;2023-03-13T14:59:45;2.10;;;1.70;;
38529;SDS011;24301;54.332;48.386;2023-03-13T15:04:51;3.20;;;2.63;;
38529;SDS011;24301;54.332;48.386;2023-03-13T15:07:17;3.17;;;2.07;;
38529;SDS011;24301;54.332;48.386;2023-03-13T15:09:44;4.97;;;2.20;;
38529;SDS011;24301;54.332;48.386;2023-03-13T15:12:21;3.63;;;2.30;;
38529;SDS011;24301;54.332;48.386;2023-03-13T15:14:48;3.20;;;2.37;;
38529;SDS011;24301;54.332;48.386;2023-03-13T15:17:18;3.07;;;2.43;;
38529;SDS011;24301;54.332;48.386;2023-03-13T15:19:54;3.17;;;2.10;;
38529;SDS011;24301;54.332;48.386;2023-03-13T15:22:28;3.50;;;2.03;;
38529;SDS011;24301;54.332;48.386;2023-03-13T15:25:00;4.37;;;2.40;;
38529;SDS011;24301;54.332;48.386;2023-03-13T15:27:26;5.37;;;3.00;;
38529;SDS011;24301;54.332;48.386;2023-03-13T15:29:52;5.63;;;2.53;;
38529;SDS011;24301;54.332;48.386;2023-03-13T15:32:23;2.77;;;1.80;;
38529;SDS011;24301;54.332;48.386;2023-03-13T15:34:50;3.37;;;2.40;;
38529;SDS011;24301;54.332;48.386;2023-03-13T15:37:17;3.03;;;2.50;;
38529;SDS011;24301;54.332;48.386;2023-03-13T15:39:43;2.57;;;2.00;;
38529;SDS011;24301;54.332;48.386;2023-03-13T15:42:09;2.87;;;1.83;;
38529;SDS011;24301;54.332;48.386;2023-03-13T15:44:35;2.37;;;1.80;;
38529;SDS011;24301;54.332;48.386;2023-03-13T15:47:01;2.37;;;1.80;;
38529;SDS011;24301;54.332;48.386;2023-03-13T15:49:27;4.60;;;2.13;;
38529;SDS011;24301;54.332;48.386;2023-03-13T15:51:53;2.83;;;2.10;;
38529;SDS011;24301;54.332;48.386;2023-03-13T15:54:19;4.67;;;2.30;;
38529;SDS011;24301;54.332;48.386;2023-03-13T15:56:44;2.77;;;2.03;;
38529;SDS011;24301;54.332;48.386;2023-03-13T15:59:12;2.77;;;2.30;;
38529;SDS011;24301;54.332;48.386;2023-03-13T16:01:40;3.30;;;2.43;;
38529;SDS011;24301;54.332;48.386;2023-03-13T16:04:09;3.63;;;2.30;;
38529;SDS011;24301;54.332;48.386;2023-03-13T16:06:36;2.77;;;2.27;;
38529;SDS011;24301;54.332;48.386;2023-03-13T16:09:03;5.10;;;2.93;;
38529;SDS011;24301;54.332;48.386;2023-03-13T16:11:31;9.67;;;4.50;;
38529;SDS011;24301;54.332;48.386;2023-03-13T16:13:57;20.40;;;8.87;;
38529;SDS011;24301;54.332;48.386;2023-03-13T16:16:23;22.07;;;9.13;;
38529;SDS011;24301;54.332;48.386;2023-03-13T16:18:53;11.23;;;5.47;;
38529;SDS011;24301;54.332;48.386;2023-03-13T16:21:20;9.57;;;5.23;;
38529;SDS011;24301;54.332;48.386;2023-03-13T16:23:48;7.57;;;4.73;;
38529;SDS011;24301;54.332;48.386;2023-03-13T16:26:15;6.70;;;4.53;;
38529;SDS011;24301;54.332;48.386;2023-03-13T16:28:43;5.27;;;3.90;;
38529;SDS011;24301;54.332;48.386;2023-03-13T16:31:20;6.03;;;3.47;;
38529;SDS011;24301;54.332;48.386;2023-03-13T16:33:48;4.80;;;3.27;;
38529;SDS011;24301;54.332;48.386;2023-03-13T16:36:16;6.57;;;3.90;;
38529;SDS011;24301;54.332;48.386;2023-03-13T16:38:44;4.00;;;2.87;;
38529;SDS011;24301;54.332;48.386;2023-03-13T16:41:11;3.20;;;2.50;;
38529;SDS011;24301;54.332;48.386;2023-03-13T16:43:39;4.70;;;2.63;;
38529;SDS011;24301;54.332;48.386;2023-03-13T16:46:09;3.80;;;2.70;;
38529;SDS011;24301;54.332;48.386;2023-03-13T16:48:37;4.60;;;2.73;;
38529;SDS011;24301;54.332;48.386;2023-03-13T16:51:03;4.30;;;2.87;;
38529;SDS011;24301;54.332;48.386;2023-03-13T16:53:29;4.53;;;3.63;;
38529;SDS011;24301;54.332;48.386;2023-03-13T16:55:55;7.90;;;4.97;;
38529;SDS011;24301;54.332;48.386;2023-03-13T16:58:21;4.50;;;3.17;;
38529;SDS011;24301;54.332;48.386;2023-03-13T17:00:46;6.27;;;3.60;;
38529;SDS011;24301;54.332;48.386;2023-03-13T17:03:12;8.00;;;2.93;;
38529;SDS011;24301;54.332;48.386;2023-03-13T17:05:38;6.73;;;3.97;;
38529;SDS011;24301;54.332;48.386;2023-03-13T17:08:04;6.30;;;3.20;;
38529;SDS011;24301;54.332;48.386;2023-03-13T17:10:31;7.77;;;4.13;;
38529;SDS011;24301;54.332;48.386;2023-03-13T17:12:58;5.83;;;2.80;;
38529;SDS011;24301;54.332;48.386;2023-03-13T17:15:25;7.27;;;4.43;;
38529;SDS011;24301;54.332;48.386;2023-03-13T17:17:52;7.10;;;3.63;;
38529;SDS011;24301;54.332;48.386;2023-03-13T17:20:23;8.13;;;4.50;;
38529;SDS011;24301;54.332;48.386;2023-03-13T17:22:51;9.50;;;4.57;;
38529;SDS011;24301;54.332;48.386;2023-03-13T17:25:17;8.80;;;5.03;;
38529;SDS011;24301;54.332;48.386;2023-03-13T17:27:43;7.97;;;3.80;;